createdAt,value
2023-02-12T00:00:45.405Z,3.34
2023-02-12T00:03:49.685Z,3.56
2023-02-12T00:06:53.550Z,3.66
2023-02-12T00:09:58.607Z,3.69
2023-02-12T00:13:01.730Z,4.05
2023-02-12T00:16:10.065Z,3.95
2023-02-12T00:19:13.243Z,4.02
2023-02-12T00:22:17.538Z,4.00
2023-02-12T00:25:20.785Z,3.83
2023-02-12T00:28:24.395Z,4.23
2023-02-12T00:31:30.740Z,4.28
2023-02-12T00:34:34.233Z,4.39
2023-02-12T00:37:37.336Z,4.34
2023-02-12T00:40:40.911Z,4.23
2023-02-12T00:43:44.577Z,4.25
2023-02-12T00:46:48.140Z,4.29
2023-02-12T00:49:53.025Z,4.38
2023-02-12T00:52:56.401Z,4.20
2023-02-12T00:56:00.347Z,4.05
2023-02-12T00:59:03.827Z,4.19
2023-02-12T01:02:07.002Z,4.19
2023-02-12T01:05:11.115Z,4.23
2023-02-12T01:08:16.521Z,4.22
2023-02-12T01:11:20.960Z,4.08
2023-02-12T01:14:26.157Z,4.04
2023-02-12T01:17:29.547Z,4.04
2023-02-12T01:20:33.597Z,3.99
2023-02-12T01:23:37.225Z,3.96
2023-02-12T01:26:40.420Z,3.79
2023-02-12T01:29:47.024Z,3.84
2023-02-12T01:32:50.328Z,3.73
2023-02-12T01:35:54.272Z,3.77
2023-02-12T01:38:59.356Z,3.79
2023-02-12T01:42:04.370Z,3.62
2023-02-12T01:45:13.560Z,3.80
2023-02-12T01:48:19.474Z,3.84
2023-02-12T01:51:24.403Z,3.81
2023-02-12T01:54:29.363Z,3.86
2023-02-12T01:57:34.840Z,3.79
2023-02-12T02:00:39.270Z,3.70
2023-02-12T02:03:45.366Z,3.79
2023-02-12T02:06:54.578Z,3.82
2023-02-12T02:09:59.214Z,3.77
2023-02-12T02:13:23.694Z,3.81
2023-02-12T02:16:30.759Z,3.78
2023-02-12T02:19:36.640Z,3.82
2023-02-12T02:23:10.261Z,3.75
2023-02-12T02:26:34.001Z,3.85
2023-02-12T02:29:47.716Z,3.79
2023-02-12T02:33:09.998Z,3.78
2023-02-12T02:36:32.192Z,3.77
2023-02-12T02:39:42.112Z,4.00
2023-02-12T02:43:28.442Z,3.85
2023-02-12T02:46:36.552Z,3.71
2023-02-12T02:49:51.448Z,3.68
2023-02-12T02:53:02.749Z,3.64
2023-02-12T02:56:09.018Z,3.80
2023-02-12T02:59:19.014Z,3.61
2023-02-12T03:02:29.587Z,3.60
2023-02-12T03:05:38.293Z,3.51
2023-02-12T03:08:49.856Z,3.64
2023-02-12T03:11:57.554Z,3.88
2023-02-12T03:15:12.514Z,3.85
2023-02-12T03:18:27.043Z,3.61
2023-02-12T03:21:35.573Z,3.90
2023-02-12T03:24:48.131Z,3.72
2023-02-12T03:28:10.089Z,3.81
2023-02-12T03:31:26.225Z,3.66
2023-02-12T03:35:14.979Z,3.67
2023-02-12T03:38:28.408Z,3.48
2023-02-12T03:41:40.457Z,3.76
2023-02-12T03:44:53.530Z,3.84
2023-02-12T03:47:59.938Z,3.77
2023-02-12T03:51:16.270Z,3.77
2023-02-12T03:54:22.294Z,3.95
2023-02-12T03:57:37.193Z,4.08
2023-02-12T04:00:41.242Z,4.10
2023-02-12T04:03:45.167Z,4.07
2023-02-12T04:06:50.592Z,3.88
2023-02-12T04:09:54.204Z,3.73
2023-02-12T04:13:16.305Z,3.47
2023-02-12T04:16:33.318Z,3.53
2023-02-12T04:20:27.793Z,3.64
2023-02-12T04:23:40.274Z,3.43
2023-02-12T04:26:49.318Z,3.51
2023-02-12T04:30:01.479Z,3.26
2023-02-12T04:33:10.850Z,3.11
2023-02-12T04:36:21.290Z,2.92
2023-02-12T04:39:32.981Z,2.68
2023-02-12T04:42:45.002Z,2.35
2023-02-12T04:45:48.119Z,2.21
2023-02-12T04:48:57.687Z,2.08
2023-02-12T04:52:01.900Z,1.74
2023-02-12T04:55:05.481Z,1.52
2023-02-12T04:58:09.237Z,1.35
2023-02-12T05:01:13.000Z,1.10
2023-02-12T05:04:17.576Z,0.88
2023-02-12T05:07:20.959Z,0.70
2023-02-12T05:10:24.126Z,0.78
2023-02-12T05:13:27.953Z,0.61
2023-02-12T05:16:31.087Z,0.56
2023-02-12T05:19:35.278Z,0.42
2023-02-12T05:22:38.587Z,0.52
2023-02-12T05:25:42.028Z,0.78
2023-02-12T05:28:45.291Z,1.26
2023-02-12T05:31:48.799Z,1.54
2023-02-12T05:34:52.129Z,1.77
2023-02-12T05:37:55.797Z,1.88
2023-02-12T05:41:10.835Z,1.84
2023-02-12T05:44:15.299Z,1.95
2023-02-12T05:47:18.596Z,1.67
2023-02-12T05:50:22.177Z,1.55
2023-02-12T05:53:34.550Z,1.28
2023-02-12T05:56:43.986Z,0.97
2023-02-12T05:59:47.554Z,0.67
2023-02-12T06:02:51.014Z,0.44
2023-02-12T06:05:55.065Z,0.22
2023-02-12T06:08:58.836Z,0.02
2023-02-12T06:12:02.218Z,-0.14
2023-02-12T06:15:05.764Z,-0.37
2023-02-12T06:18:09.399Z,-0.46
2023-02-12T06:21:12.632Z,-0.67
2023-02-12T06:24:17.619Z,-0.67
2023-02-12T06:27:21.531Z,-0.70
2023-02-12T06:30:25.054Z,-0.62
2023-02-12T06:33:28.574Z,-0.89
2023-02-12T06:36:32.646Z,-0.66
2023-02-12T06:39:36.248Z,-0.65
2023-02-12T06:42:39.624Z,-0.53
2023-02-12T06:45:42.815Z,-0.32
2023-02-12T06:48:46.528Z,-0.19
2023-02-12T06:51:49.811Z,0.11
2023-02-12T06:54:53.620Z,0.32
2023-02-12T06:57:56.731Z,0.53
2023-02-12T07:01:18.783Z,0.73
2023-02-12T07:04:22.352Z,0.87
2023-02-12T07:07:25.877Z,0.97
2023-02-12T07:10:29.116Z,1.07
2023-02-12T07:13:35.063Z,1.07
2023-02-12T07:16:41.365Z,1.14
2023-02-12T07:19:44.810Z,1.21
2023-02-12T07:22:48.035Z,1.30
2023-02-12T07:25:59.534Z,1.76
2023-02-12T07:29:03.092Z,2.40
2023-02-12T07:32:07.423Z,2.74
2023-02-12T07:35:10.724Z,2.80
2023-02-12T07:38:14.458Z,2.88
2023-02-12T07:41:21.842Z,3.04
2023-02-12T07:44:25.584Z,3.26
2023-02-12T07:47:28.838Z,3.74
2023-02-12T07:50:32.230Z,4.13
2023-02-12T07:53:36.246Z,4.25
2023-02-12T07:56:44.269Z,4.48
2023-02-12T07:59:47.412Z,4.59
2023-02-12T08:02:54.690Z,4.75
2023-02-12T08:05:58.352Z,4.81
2023-02-12T08:09:03.698Z,4.85
2023-02-12T08:12:07.473Z,4.96
2023-02-12T08:15:11.549Z,5.10
2023-02-12T08:18:17.193Z,5.34
2023-02-12T08:21:23.376Z,5.50
2023-02-12T08:24:26.913Z,5.61
2023-02-12T08:27:30.238Z,5.78
2023-02-12T08:30:33.816Z,5.95
2023-02-12T08:33:37.473Z,6.12
2023-02-12T08:36:41.103Z,6.25
2023-02-12T08:39:44.253Z,6.41
2023-02-12T08:42:47.612Z,6.59
2023-02-12T08:45:50.735Z,6.62
2023-02-12T08:49:00.109Z,6.94
2023-02-12T08:52:03.599Z,7.39
2023-02-12T08:55:07.401Z,7.94
2023-02-12T08:58:10.622Z,8.36
2023-02-12T09:01:25.433Z,8.54
2023-02-12T09:04:29.543Z,8.59
2023-02-12T09:07:33.144Z,8.88
2023-02-12T09:10:40.676Z,8.99
2023-02-12T09:13:46.254Z,9.15
2023-02-12T09:16:52.671Z,9.10
2023-02-12T09:19:57.578Z,9.15
2023-02-12T09:23:01.018Z,9.20
2023-02-12T09:26:06.200Z,9.32
2023-02-12T09:29:10.026Z,9.15
2023-02-12T09:32:13.604Z,8.79
2023-02-12T09:35:18.735Z,8.84
2023-02-12T09:38:22.238Z,8.80
2023-02-12T09:41:44.494Z,8.82
2023-02-12T09:45:05.908Z,9.28
2023-02-12T09:48:43.354Z,9.76
2023-02-12T09:51:54.026Z,10.12
2023-02-12T09:54:58.375Z,10.36
2023-02-12T09:58:10.652Z,10.40
2023-02-12T10:01:17.441Z,11.01
2023-02-12T10:04:22.770Z,10.87
2023-02-12T10:07:32.346Z,10.36
2023-02-12T10:10:52.954Z,10.62
2023-02-12T10:14:18.419Z,10.66
2023-02-12T10:17:37.552Z,10.89
2023-02-12T10:20:58.812Z,10.82
2023-02-12T10:24:21.184Z,10.90
2023-02-12T10:27:41.168Z,10.62
2023-02-12T10:31:04.457Z,10.41
2023-02-12T10:34:25.232Z,10.68
2023-02-12T10:37:32.846Z,11.00
2023-02-12T10:40:39.380Z,11.01
2023-02-12T10:43:44.811Z,11.11
2023-02-12T10:46:48.467Z,11.38
2023-02-12T10:50:01.068Z,11.32
2023-02-12T10:53:04.647Z,11.46
2023-02-12T10:56:12.278Z,11.92
2023-02-12T10:59:24.297Z,11.98
2023-02-12T11:02:32.411Z,11.85
2023-02-12T11:05:36.734Z,12.30
2023-02-12T11:08:42.249Z,11.68
2023-02-12T11:11:49.594Z,11.17
2023-02-12T11:15:03.756Z,11.29
2023-02-12T11:18:20.382Z,11.83
2023-02-12T11:21:25.438Z,11.76
2023-02-12T11:24:36.979Z,12.05
2023-02-12T11:27:45.779Z,12.44
2023-02-12T11:31:00.341Z,12.57
2023-02-12T11:34:04.698Z,12.84
2023-02-12T11:37:19.459Z,13.33
2023-02-12T11:40:29.974Z,13.23
2023-02-12T11:43:37.512Z,12.79
2023-02-12T11:46:49.999Z,12.54
2023-02-12T11:50:05.962Z,12.78
2023-02-12T11:53:20.959Z,12.96
2023-02-12T11:56:25.555Z,13.14
2023-02-12T11:59:39.965Z,12.78
2023-02-12T12:03:16.747Z,13.38
2023-02-12T12:06:27.724Z,13.60
2023-02-12T12:10:01.786Z,13.70
2023-02-12T12:13:14.248Z,13.55
2023-02-12T12:16:47.441Z,12.73
2023-02-12T12:20:05.400Z,11.54
2023-02-12T12:23:49.212Z,10.85
2023-02-12T12:27:03.954Z,10.44
2023-02-12T12:30:19.065Z,10.10
2023-02-12T12:33:32.524Z,9.98
2023-02-12T12:37:03.330Z,9.62
2023-02-12T12:40:20.850Z,9.51
2023-02-12T12:43:36.617Z,9.41
2023-02-12T12:46:48.131Z,9.15
2023-02-12T12:50:27.138Z,8.98
2023-02-12T12:53:57.714Z,8.81
2023-02-12T12:57:19.745Z,8.72
2023-02-12T13:01:06.903Z,8.45
2023-02-12T13:04:45.736Z,8.44
2023-02-12T13:07:53.318Z,8.30
2023-02-12T13:11:30.681Z,8.24
2023-02-12T13:14:39.095Z,8.20
2023-02-12T13:17:46.299Z,8.18
2023-02-12T13:21:16.282Z,8.32
2023-02-12T13:24:32.129Z,8.48
2023-02-12T13:27:45.680Z,8.55
2023-02-12T13:30:54.008Z,8.42
2023-02-12T13:34:02.829Z,8.30
2023-02-12T13:37:16.140Z,8.13
2023-02-12T13:40:26.578Z,7.98
2023-02-12T13:43:48.600Z,7.92
2023-02-12T13:47:04.925Z,7.95
2023-02-12T13:50:24.627Z,7.94
2023-02-12T13:53:46.485Z,7.93
2023-02-12T13:56:54.727Z,7.97
2023-02-12T14:00:00.425Z,7.90
2023-02-12T14:03:10.373Z,7.81
2023-02-12T14:06:22.336Z,7.74
2023-02-12T14:10:00.348Z,7.64
2023-02-12T14:13:13.392Z,7.60
2023-02-12T14:16:20.760Z,7.93
2023-02-12T14:19:50.863Z,8.59
2023-02-12T14:23:21.792Z,9.24
2023-02-12T14:26:37.480Z,9.69
2023-02-12T14:30:24.180Z,9.75
2023-02-12T14:33:29.148Z,9.78
2023-02-12T14:36:33.361Z,9.82
2023-02-12T14:39:38.585Z,9.57
2023-02-12T14:42:55.500Z,9.15
2023-02-12T14:46:25.857Z,8.88
2023-02-12T14:49:53.366Z,8.48
2023-02-12T14:53:30.938Z,8.17
2023-02-12T14:56:47.542Z,7.86
2023-02-12T15:00:13.960Z,7.62
2023-02-12T15:03:20.631Z,7.56
2023-02-12T15:06:38.537Z,7.48
2023-02-12T15:09:52.957Z,7.46
2023-02-12T15:13:34.984Z,7.25
2023-02-12T15:16:49.449Z,7.40
2023-02-12T15:20:04.409Z,7.28
2023-02-12T15:23:33.810Z,7.16
2023-02-12T15:26:47.328Z,6.93
2023-02-12T15:29:56.205Z,6.66
2023-02-12T15:33:14.267Z,6.46
2023-02-12T15:36:27.393Z,6.33
2023-02-12T15:39:45.371Z,5.99
2023-02-12T15:43:00.089Z,5.80
2023-02-12T15:46:16.863Z,5.51
2023-02-12T15:49:25.564Z,5.26
2023-02-12T15:52:36.599Z,4.96
2023-02-12T15:55:46.935Z,4.53
2023-02-12T15:58:54.692Z,4.35
2023-02-12T16:02:03.984Z,4.08
2023-02-12T16:05:16.221Z,3.84
2023-02-12T16:08:23.504Z,3.65
2023-02-12T16:11:31.000Z,3.41
2023-02-12T16:14:49.148Z,3.22
2023-02-12T16:17:55.889Z,2.90
2023-02-12T16:21:22.956Z,2.66
2023-02-12T16:24:48.688Z,2.46
2023-02-12T16:28:08.929Z,2.25
2023-02-12T16:31:17.456Z,2.16
2023-02-12T16:34:37.471Z,1.95
2023-02-12T16:37:51.212Z,1.65
2023-02-12T16:41:35.817Z,1.60
2023-02-12T16:44:42.474Z,1.51
2023-02-12T16:47:51.666Z,1.50
2023-02-12T16:50:59.301Z,1.29
2023-02-12T16:54:06.109Z,1.13
2023-02-12T16:57:13.518Z,0.96
2023-02-12T17:00:24.560Z,0.89
2023-02-12T17:03:33.307Z,0.84
2023-02-12T17:06:38.244Z,0.61
2023-02-12T17:09:44.839Z,0.69
2023-02-12T17:12:52.680Z,0.73
2023-02-12T17:16:01.917Z,0.83
2023-02-12T17:19:06.966Z,0.98
2023-02-12T17:22:31.237Z,0.80
2023-02-12T17:25:39.286Z,0.86
2023-02-12T17:28:45.360Z,0.94
2023-02-12T17:31:55.374Z,0.99
2023-02-12T17:35:02.968Z,0.84
2023-02-12T17:38:08.913Z,0.68
2023-02-12T17:41:15.636Z,0.63
2023-02-12T17:44:21.481Z,0.65
2023-02-12T17:47:27.106Z,0.55
2023-02-12T17:50:32.608Z,0.31
2023-02-12T17:53:39.733Z,0.07
2023-02-12T17:56:44.275Z,-0.08
2023-02-12T17:59:49.989Z,-0.22
2023-02-12T18:02:57.124Z,-0.29
2023-02-12T18:06:04.489Z,-0.36
2023-02-12T18:09:12.623Z,-0.52
2023-02-12T18:12:19.018Z,-0.53
2023-02-12T18:15:27.900Z,-0.64
2023-02-12T18:18:36.075Z,-0.76
2023-02-12T18:21:48.015Z,-1.04
2023-02-12T18:24:52.750Z,-1.02
2023-02-12T18:27:58.485Z,-1.12
2023-02-12T18:31:05.887Z,-1.23
2023-02-12T18:34:11.242Z,-1.36
2023-02-12T18:37:18.972Z,-1.47
2023-02-12T18:40:28.468Z,-1.57
2023-02-12T18:43:37.686Z,-1.64
2023-02-12T18:46:47.121Z,-1.71
2023-02-12T18:49:54.561Z,-1.84
2023-02-12T18:53:02.348Z,-1.86
2023-02-12T18:56:11.085Z,-2.29
2023-02-12T18:59:19.380Z,-2.05
2023-02-12T19:02:27.473Z,-2.09
2023-02-12T19:05:38.456Z,-2.07
2023-02-12T19:08:44.352Z,-2.21
2023-02-12T19:11:53.604Z,-2.14
2023-02-12T19:15:01.018Z,-2.06
2023-02-12T19:18:10.469Z,-1.87
2023-02-12T19:21:20.740Z,-1.80
2023-02-12T19:24:40.857Z,-1.81
2023-02-12T19:27:52.192Z,-2.10
2023-02-12T19:30:57.676Z,-2.22
2023-02-12T19:34:09.761Z,-2.33
2023-02-12T19:37:17.143Z,-2.41
2023-02-12T19:40:23.161Z,-2.54
2023-02-12T19:43:30.089Z,-2.55
2023-02-12T19:46:39.901Z,-2.59
2023-02-12T19:49:46.513Z,-2.59
2023-02-12T19:52:52.823Z,-2.86
2023-02-12T19:56:05.517Z,-2.74
2023-02-12T19:59:17.808Z,-2.74
2023-02-12T20:02:23.166Z,-2.71
2023-02-12T20:05:30.830Z,-2.88
2023-02-12T20:08:40.287Z,-2.98
2023-02-12T20:11:46.720Z,-2.73
2023-02-12T20:14:51.876Z,-2.76
2023-02-12T20:17:59.685Z,-2.76
2023-02-12T20:21:12.985Z,-2.90
2023-02-12T20:24:19.787Z,-2.93
2023-02-12T20:27:26.964Z,-2.96
2023-02-12T20:30:35.221Z,-2.99
2023-02-12T20:33:41.223Z,-3.01
2023-02-12T20:36:48.060Z,-3.16
2023-02-12T20:39:55.794Z,-2.95
2023-02-12T20:43:03.217Z,-3.04
2023-02-12T20:46:12.382Z,-3.02
2023-02-12T20:49:20.462Z,-3.12
2023-02-12T20:52:26.422Z,-3.12
2023-02-12T20:55:31.526Z,-3.11
2023-02-12T20:58:36.493Z,-3.11
2023-02-12T21:01:43.645Z,-3.18
2023-02-12T21:04:52.432Z,-3.30
2023-02-12T21:07:59.089Z,-3.18
2023-02-12T21:11:13.636Z,-3.32
2023-02-12T21:14:23.129Z,-3.46
2023-02-12T21:17:28.475Z,-3.27
2023-02-12T21:20:33.676Z,-3.25
2023-02-12T21:23:39.067Z,-3.32
2023-02-12T21:26:45.886Z,-3.35
2023-02-12T21:29:55.265Z,-3.37
2023-02-12T21:33:06.827Z,-3.39
2023-02-12T21:36:15.337Z,-3.59
2023-02-12T21:39:29.571Z,-3.16
2023-02-12T21:42:33.772Z,-3.06
2023-02-12T21:45:38.454Z,-3.06
2023-02-12T21:48:43.017Z,-3.31
2023-02-12T21:51:50.617Z,-3.11
2023-02-12T21:54:58.312Z,-3.13
2023-02-12T21:58:03.956Z,-3.15
2023-02-12T22:01:16.612Z,-3.20
2023-02-12T22:04:21.516Z,-3.28
2023-02-12T22:07:26.266Z,-3.42
2023-02-12T22:10:29.822Z,-3.42
2023-02-12T22:13:33.489Z,-3.38
2023-02-12T22:16:37.540Z,-3.34
2023-02-12T22:19:41.053Z,-3.25
2023-02-12T22:22:44.800Z,-3.25
2023-02-12T22:25:48.107Z,-3.23
2023-02-12T22:28:54.539Z,-3.29
2023-02-12T22:31:58.638Z,-3.11
2023-02-12T22:35:02.249Z,-3.16
2023-02-12T22:38:05.661Z,-3.17
2023-02-12T22:41:10.348Z,-3.30
2023-02-12T22:44:14.811Z,-3.11
2023-02-12T22:47:18.344Z,-3.24
2023-02-12T22:50:21.541Z,-3.43
2023-02-12T22:53:26.015Z,-3.48
2023-02-12T22:56:29.235Z,-3.50
2023-02-12T22:59:32.710Z,-3.59
2023-02-12T23:02:36.609Z,-3.58
2023-02-12T23:05:40.119Z,-3.63
2023-02-12T23:08:44.050Z,-3.63
2023-02-12T23:11:49.001Z,-3.63
2023-02-12T23:14:52.194Z,-3.54
2023-02-12T23:17:55.574Z,-3.85
2023-02-12T23:20:59.508Z,-3.65
2023-02-12T23:24:03.089Z,-3.74
2023-02-12T23:27:06.401Z,-3.96
2023-02-12T23:30:10.509Z,-3.91
2023-02-12T23:33:13.703Z,-4.02
2023-02-12T23:36:17.329Z,-4.11
2023-02-12T23:39:20.712Z,-4.11
2023-02-12T23:42:24.187Z,-3.99
2023-02-12T23:45:28.521Z,-4.06
2023-02-12T23:48:32.596Z,-4.43
2023-02-12T23:51:35.817Z,-4.13
2023-02-12T23:54:40.868Z,-4.19
2023-02-12T23:57:44.043Z,-4.23
